Time;durP1;ratioP1;P1;durP2;ratioP2;P2;SDS_P1;SDS_P2;PMS_P1;PMS_P2;Temp;Humidity;BMP_temperature;BMP_pressure;BME280_temperature;BME280_humidity;BME280_pressure;Samples;Min_cycle;Max_cycle;Signal;HPM_P1;HPM_P2
2021/01/11 00:02:31;;;;;;;36.55;15.50;;;-3.80;99.90;;;;;;4905217;24;20083;-80
2021/01/11 00:04:58;;;;;;;42.88;17.88;;;-3.90;99.90;;;;;;4756667;30;20401;-79
2021/01/11 00:07:29;;;;;;;33.33;16.17;;;-3.80;99.90;;;;;;4756569;30;20534;-79
2021/01/11 00:09:56;;;;;;;36.65;15.73;;;-3.90;99.90;;;;;;4771516;30;20055;-80
2021/01/11 00:12:27;;;;;;;38.53;16.67;;;-4.00;99.90;;;;;;4757576;30;20040;-79
2021/01/11 00:35:24;;;;;;;42.35;17.30;;;-4.10;99.90;;;;;;5182463;24;20066;-80
2021/01/11 00:37:51;;;;;;;41.08;17.45;;;-4.20;99.90;;;;;;4756548;30;20052;-80
2021/01/11 00:40:17;;;;;;;37.45;16.50;;;-4.20;99.90;;;;;;4756541;30;20051;-79
2021/01/11 00:42:49;;;;;;;38.17;16.02;;;-4.10;99.90;;;;;;4756793;30;20420;-80
2021/01/11 01:02:50;;;;;;;36.75;15.30;;;-4.10;99.90;;;;;;5466256;24;20063;-80
2021/01/11 01:05:21;;;;;;;35.60;15.30;;;-4.10;99.90;;;;;;4770132;30;20051;-80
2021/01/11 01:07:53;;;;;;;41.03;17.88;;;-4.20;99.90;;;;;;4774171;30;20051;-80
2021/01/11 01:10:20;;;;;;;34.47;15.80;;;-4.20;99.90;;;;;;4773505;30;20047;-80
2021/01/11 01:12:51;;;;;;;33.65;14.40;;;-4.20;99.90;;;;;;4773598;30;20512;-80
2021/01/11 01:15:18;;;;;;;35.55;15.63;;;-4.10;99.90;;;;;;4758488;30;20058;-80
2021/01/11 01:17:49;;;;;;;37.05;17.02;;;-4.10;99.90;;;;;;4773396;30;20530;-80
2021/01/11 01:20:16;;;;;;;39.42;16.35;;;-4.10;99.90;;;;;;4773479;30;20108;-80
2021/01/11 01:22:49;;;;;;;32.50;16.45;;;-4.10;99.90;;;;;;4773346;30;20124;-80
2021/01/11 01:28:17;;;;;;;34.40;15.77;;;-4.10;99.90;;;;;;5310232;24;20113;-80
2021/01/11 01:30:48;;;;;;;35.95;16.27;;;-4.10;99.90;;;;;;4772945;30;20507;-80
2021/01/11 01:38:59;;;;;;;36.33;16.50;;;-4.20;99.90;;;;;;5716765;24;20063;-80
2021/01/11 01:41:30;;;;;;;38.35;16.15;;;-4.30;99.90;;;;;;4755405;30;20059;-80
2021/01/11 04:00:08;;;;;;;33.08;13.80;;;-4.40;99.90;;;;;;5396230;24;20408;-80
2021/01/11 04:02:40;;;;;;;35.88;14.23;;;-4.30;99.90;;;;;;4771850;30;20058;-80
2021/01/11 04:25:32;;;;;;;31.63;13.60;;;-4.50;99.90;;;;;;5352476;24;20491;-79
2021/01/11 04:28:04;;;;;;;34.70;15.33;;;-4.50;99.90;;;;;;4760327;30;20055;-77
2021/01/11 04:30:31;;;;;;;33.90;14.82;;;-4.50;99.90;;;;;;4753131;30;20663;-78
2021/01/11 04:32:57;;;;;;;29.67;12.18;;;-4.60;99.90;;;;;;4753328;30;20043;-78
2021/01/11 04:35:26;;;;;;;28.17;12.07;;;-4.70;99.90;;;;;;4753316;30;20527;-78
2021/01/11 04:37:58;;;;;;;29.65;13.00;;;-4.90;99.90;;;;;;4753277;30;20147;-78
2021/01/11 04:40:29;;;;;;;28.67;11.80;;;-5.00;99.90;;;;;;4752996;30;20055;-78
2021/01/11 04:43:20;;;;;;;29.58;12.13;;;-5.20;99.90;;;;;;4753274;30;20052;-77
2021/01/11 04:45:52;;;;;;;27.00;14.23;;;-5.20;99.90;;;;;;4753415;30;20060;-78
2021/01/11 04:48:23;;;;;;;28.53;12.20;;;-5.40;99.90;;;;;;4753296;30;20051;-78
2021/01/11 04:50:56;;;;;;;25.47;12.80;;;-5.40;99.90;;;;;;4768981;30;20401;-77
2021/01/11 04:53:25;;;;;;;29.10;13.20;;;-5.30;99.90;;;;;;4752959;30;20079;-78
2021/01/11 04:55:54;;;;;;;23.77;11.77;;;-4.90;99.90;;;;;;4752559;30;20051;-78
2021/01/11 04:58:41;;;;;;;22.88;10.82;;;-4.70;99.90;;;;;;4752103;30;20135;-77
2021/01/11 05:01:20;;;;;;;22.70;10.80;;;-4.60;99.90;;;;;;4749815;30;20134;-77
2021/01/11 05:03:56;;;;;;;28.02;11.32;;;-4.70;99.90;;;;;;4743529;30;20168;-78
2021/01/11 05:06:29;;;;;;;20.73;11.07;;;-4.70;99.90;;;;;;4755703;30;20155;-78
2021/01/11 05:09:08;;;;;;;22.52;9.38;;;-4.70;99.90;;;;;;4754642;30;20051;-78
2021/01/11 05:11:40;;;;;;;29.98;12.23;;;-4.70;99.90;;;;;;4762559;30;20054;-78
2021/01/11 05:14:18;;;;;;;26.85;12.15;;;-4.60;99.90;;;;;;4752154;30;20508;-78
2021/01/11 05:17:05;;;;;;;29.10;13.02;;;-4.60;99.90;;;;;;4763109;30;20045;-77
2021/01/11 05:19:32;;;;;;;28.05;12.23;;;-4.70;99.90;;;;;;4754942;30;20472;-78
2021/01/11 05:21:58;;;;;;;32.08;12.65;;;-4.70;99.90;;;;;;4766418;30;20072;-78
2021/01/11 05:24:41;;;;;;;28.75;12.95;;;-4.70;99.90;;;;;;4759110;30;20130;-78
2021/01/11 05:27:09;;;;;;;28.63;12.88;;;-4.70;99.90;;;;;;4758096;30;20059;-77
2021/01/11 05:29:41;;;;;;;25.23;11.93;;;-4.70;99.90;;;;;;4753984;30;20058;-78
2021/01/11 05:32:09;;;;;;;27.70;10.90;;;-4.70;99.90;;;;;;4759649;30;20059;-79
2021/01/11 05:34:51;;;;;;;26.00;11.77;;;-4.70;99.90;;;;;;4759140;30;20061;-78
2021/01/11 05:37:31;;;;;;;25.77;11.50;;;-4.70;99.90;;;;;;4752769;30;20062;-77
2021/01/11 05:40:05;;;;;;;31.88;14.05;;;-4.60;99.90;;;;;;4738096;30;20508;-78
2021/01/11 05:42:32;;;;;;;30.80;13.20;;;-4.70;99.90;;;;;;4736788;30;20097;-77
2021/01/11 05:45:28;;;;;;;33.03;14.70;;;-4.80;99.90;;;;;;4736849;30;20054;-78
2021/01/11 05:48:05;;;;;;;36.20;15.32;;;-4.90;99.90;;;;;;4741497;30;20068;-77
2021/01/11 05:50:37;;;;;;;31.57;13.63;;;-5.00;99.90;;;;;;4734999;30;20138;-77
2021/01/11 05:53:05;;;;;;;28.35;13.45;;;-5.00;99.90;;;;;;4750826;30;20048;-78
2021/01/11 05:55:38;;;;;;;30.55;13.43;;;-5.00;99.90;;;;;;4737162;30;20047;-77
2021/01/11 05:58:05;;;;;;;37.50;15.40;;;-5.00;99.90;;;;;;4750334;30;20083;-78
2021/01/11 06:00:38;;;;;;;31.25;14.05;;;-5.00;99.90;;;;;;4764531;30;20058;-78
2021/01/11 06:03:11;;;;;;;29.65;13.02;;;-5.00;99.90;;;;;;4768756;30;20145;-78
2021/01/11 06:05:38;;;;;;;33.33;15.00;;;-4.90;99.90;;;;;;4752142;30;20507;-77
2021/01/11 06:08:12;;;;;;;36.10;15.82;;;-4.90;99.90;;;;;;4742666;30;20082;-78
2021/01/11 06:10:40;;;;;;;32.10;13.98;;;-4.90;99.90;;;;;;4753888;30;20062;-79
2021/01/11 06:13:18;;;;;;;37.80;15.10;;;-5.00;99.90;;;;;;4754737;30;20062;-79
2021/01/11 06:15:50;;;;;;;31.85;14.40;;;-5.00;99.90;;;;;;4754364;30;20054;-79
2021/01/11 06:18:22;;;;;;;37.10;14.53;;;-5.00;99.90;;;;;;4755128;30;20441;-78
2021/01/11 06:20:53;;;;;;;33.42;14.65;;;-5.00;99.90;;;;;;4754538;30;20047;-79
2021/01/11 06:50:31;;;;;;;34.97;14.30;;;-5.10;99.90;;;;;;5463847;24;20140;-79
2021/01/11 06:53:04;;;;;;;33.75;12.85;;;-5.10;99.90;;;;;;4721996;30;20072;-80
2021/01/11 06:55:35;;;;;;;31.38;13.30;;;-5.10;99.90;;;;;;4701221;30;20057;-79
2021/01/11 06:58:07;;;;;;;36.90;15.13;;;-5.10;99.90;;;;;;4715678;30;20060;-80
2021/01/11 07:00:40;;;;;;;34.35;13.95;;;-5.00;99.90;;;;;;4701145;30;20067;-79
2021/01/11 07:03:08;;;;;;;27.27;13.40;;;-5.10;99.90;;;;;;4717597;30;20049;-80
2021/01/11 07:05:44;;;;;;;32.92;14.45;;;-5.00;99.90;;;;;;4719717;30;20519;-80
2021/01/11 07:08:20;;;;;;;33.85;15.27;;;-4.90;99.90;;;;;;4720051;30;20509;-79
2021/01/11 07:11:04;;;;;;;36.27;14.73;;;-4.90;99.90;;;;;;4727955;30;20051;-79
2021/01/11 07:13:42;;;;;;;34.05;14.20;;;-4.80;99.90;;;;;;4719042;30;20045;-79
2021/01/11 07:16:16;;;;;;;35.92;13.70;;;-4.70;99.90;;;;;;4736435;30;20082;-79
2021/01/11 07:18:49;;;;;;;33.70;13.65;;;-4.80;99.90;;;;;;4750515;30;20055;-79
2021/01/11 07:21:24;;;;;;;35.40;14.57;;;-4.90;99.90;;;;;;4724655;30;20053;-79
2021/01/11 07:23:59;;;;;;;26.92;11.50;;;-4.90;99.90;;;;;;4719056;30;20057;-78
2021/01/11 07:26:32;;;;;;;27.77;11.93;;;-4.90;99.90;;;;;;4705749;30;20051;-79
2021/01/11 07:29:17;;;;;;;29.85;11.90;;;-4.90;99.90;;;;;;4732885;30;20072;-79
2021/01/11 07:31:45;;;;;;;23.27;10.85;;;-5.00;99.90;;;;;;4718470;30;20044;-79
2021/01/11 07:34:18;;;;;;;25.48;10.63;;;-5.00;99.90;;;;;;4718149;30;20049;-79
2021/01/11 07:36:54;;;;;;;;;;;-5.10;99.90;;;;;;4733522;30;20044;-79
2021/01/11 07:39:30;;;;;;;22.38;9.50;;;-5.30;99.90;;;;;;4732667;30;19934;-79
2021/01/11 07:42:01;;;;;;;23.35;10.48;;;-5.50;99.90;;;;;;4718302;30;20151;-79
2021/01/11 07:44:35;;;;;;;23.38;10.32;;;-5.60;99.90;;;;;;4718387;30;20173;-79
2021/01/11 07:47:12;;;;;;;20.42;8.52;;;-5.70;99.90;;;;;;4732860;30;20131;-79
2021/01/11 07:49:48;;;;;;;21.40;9.55;;;-5.80;99.90;;;;;;4718584;30;20051;-79
2021/01/11 07:52:20;;;;;;;21.85;9.05;;;-5.80;99.90;;;;;;4731640;30;20052;-79
2021/01/11 07:55:00;;;;;;;23.05;10.45;;;-5.60;99.90;;;;;;4714251;30;20140;-78
2021/01/11 07:57:32;;;;;;;22.17;9.03;;;-5.50;99.90;;;;;;4718380;30;20053;-78
2021/01/11 08:00:03;;;;;;;44.53;17.17;;;-5.40;99.90;;;;;;4728627;30;20057;-79
2021/01/11 08:02:38;;;;;;;22.88;11.68;;;-5.30;99.90;;;;;;4702063;30;20061;-79
2021/01/11 08:05:18;;;;;;;36.50;15.35;;;-5.10;99.90;;;;;;4729375;30;20057;-79
2021/01/11 08:07:48;;;;;;;45.60;18.58;;;-5.00;99.90;;;;;;4714192;30;20088;-79
2021/01/11 08:10:23;;;;;;;24.13;11.57;;;-4.90;99.90;;;;;;4717961;30;20528;-78
2021/01/11 08:12:49;;;;;;;22.23;10.38;;;-4.90;99.90;;;;;;4732288;30;20076;-79
2021/01/11 08:15:22;;;;;;;21.02;9.43;;;-4.80;99.90;;;;;;4716678;30;20052;-79
2021/01/11 08:17:54;;;;;;;17.25;7.72;;;-4.80;99.90;;;;;;4717640;30;20140;-78
2021/01/11 08:20:25;;;;;;;21.88;9.90;;;-4.80;99.90;;;;;;4732582;30;20063;-78
2021/01/11 08:22:51;;;;;;;26.05;10.52;;;-4.80;99.90;;;;;;4732093;30;20055;-79
2021/01/11 08:25:25;;;;;;;25.58;11.13;;;-4.80;99.90;;;;;;4717582;30;20057;-78
2021/01/11 08:27:57;;;;;;;27.38;12.27;;;-4.80;99.90;;;;;;4717095;30;20059;-79
2021/01/11 08:30:30;;;;;;;19.98;10.00;;;-4.70;99.90;;;;;;4718148;30;20055;-78
2021/01/11 08:32:58;;;;;;;27.27;11.60;;;-4.70;99.90;;;;;;4717480;30;20147;-78
2021/01/11 08:35:29;;;;;;;20.13;7.80;;;-4.60;99.90;;;;;;4717289;30;20052;-78
2021/01/11 08:38:02;;;;;;;23.27;10.25;;;-4.60;99.90;;;;;;4717033;30;20071;-79
2021/01/11 08:40:33;;;;;;;26.75;11.45;;;-4.60;99.90;;;;;;4732249;30;20147;-79
2021/01/11 08:43:13;;;;;;;28.15;12.15;;;-4.50;99.90;;;;;;4731824;30;20090;-78
2021/01/11 08:45:42;;;;;;;26.83;12.27;;;-4.60;99.90;;;;;;4715444;30;20053;-78
2021/01/11 08:48:11;;;;;;;27.35;11.35;;;-4.50;99.90;;;;;;4700067;30;20151;-79
2021/01/11 08:50:42;;;;;;;25.90;11.73;;;-4.60;99.90;;;;;;4714291;30;20739;-80
2021/01/11 08:53:18;;;;;;;26.48;11.05;;;-4.60;99.90;;;;;;4700887;30;20156;-80
2021/01/11 08:56:08;;;;;;;18.92;8.85;;;-4.70;99.90;;;;;;4702377;30;20049;-80
2021/01/11 08:58:53;;;;;;;31.23;12.57;;;-4.70;99.90;;;;;;4715758;30;20430;-79
2021/01/11 09:01:25;;;;;;;29.55;13.45;;;-4.60;99.90;;;;;;4688019;30;20532;-79
2021/01/11 09:04:00;;;;;;;35.05;14.10;;;-4.60;99.90;;;;;;4723922;30;20089;-80
2021/01/11 09:06:42;;;;;;;31.45;13.30;;;-4.60;99.90;;;;;;4732679;30;20155;-79
2021/01/11 09:09:18;;;;;;;25.85;11.60;;;-4.40;99.90;;;;;;4733525;30;20052;-79
2021/01/11 09:12:03;;;;;;;25.70;11.25;;;-4.40;99.90;;;;;;4733771;30;20060;-79
2021/01/11 09:14:52;;;;;;;26.90;10.82;;;-4.40;99.90;;;;;;4733576;30;20098;-79
2021/01/11 09:17:32;;;;;;;27.45;11.52;;;-4.40;99.90;;;;;;4733200;30;20143;-80
2021/01/11 09:20:00;;;;;;;31.73;12.65;;;-4.30;99.90;;;;;;4732619;30;20056;-79
2021/01/11 09:22:39;;;;;;;31.48;12.57;;;-4.30;99.90;;;;;;4732512;30;20076;-80
2021/01/11 09:25:11;;;;;;;23.90;11.20;;;-4.30;99.90;;;;;;4732622;30;20053;-80
2021/01/11 09:27:39;;;;;;;31.80;13.20;;;-4.40;99.90;;;;;;4732145;30;20056;-80
2021/01/11 09:30:10;;;;;;;22.65;11.52;;;-4.30;99.90;;;;;;4732627;30;20109;-80
2021/01/11 09:32:44;;;;;;;29.70;12.45;;;-4.30;99.90;;;;;;4733112;30;20527;-79
2021/01/11 09:35:13;;;;;;;25.88;10.90;;;-4.40;99.90;;;;;;4862235;24;20509;-79
2021/01/11 09:37:40;;;;;;;30.33;13.43;;;-4.30;99.90;;;;;;4748757;30;20079;-79
2021/01/11 09:40:12;;;;;;;28.83;11.43;;;-4.40;99.90;;;;;;4749216;30;20509;-80
2021/01/11 09:42:46;;;;;;;29.40;11.80;;;-4.40;99.90;;;;;;4748258;30;20047;-79
2021/01/11 09:45:13;;;;;;;26.40;11.18;;;-4.40;99.90;;;;;;4719114;30;20106;-79
2021/01/11 09:47:41;;;;;;;30.23;12.15;;;-4.40;99.90;;;;;;4748750;30;20114;-79
2021/01/11 09:50:10;;;;;;;30.15;12.18;;;-4.30;99.90;;;;;;4733866;30;20056;-80
2021/01/11 09:52:42;;;;;;;28.27;11.30;;;-4.40;99.90;;;;;;4734508;30;20501;-79
2021/01/11 09:55:16;;;;;;;28.60;13.25;;;-4.30;99.90;;;;;;4734589;30;20052;-79
2021/01/11 09:57:42;;;;;;;23.85;11.45;;;-4.20;99.90;;;;;;4735643;30;20049;-80
2021/01/11 10:00:12;;;;;;;29.33;12.02;;;-4.10;99.90;;;;;;4748622;30;20509;-79
2021/01/11 10:02:48;;;;;;;30.13;12.93;;;-4.10;99.90;;;;;;4733954;30;20589;-80
2021/01/11 10:05:20;;;;;;;33.63;13.10;;;-4.00;99.90;;;;;;4747958;30;20049;-79
2021/01/11 10:07:52;;;;;;;31.90;15.93;;;-4.00;99.90;;;;;;4733964;30;20091;-79
2021/01/11 10:10:25;;;;;;;29.02;12.48;;;-4.00;99.90;;;;;;4748227;30;20045;-80
2021/01/11 10:12:52;;;;;;;25.55;12.20;;;-4.00;99.90;;;;;;4733727;30;20045;-79
2021/01/11 10:15:24;;;;;;;28.85;13.13;;;-4.00;99.90;;;;;;4747973;30;20045;-80
2021/01/11 10:17:58;;;;;;;24.80;12.27;;;-4.20;99.90;;;;;;4733766;30;20059;-80
2021/01/11 10:20:24;;;;;;;25.77;11.73;;;-4.30;99.90;;;;;;4733619;30;20060;-80
2021/01/11 10:22:51;;;;;;;30.10;12.95;;;-4.40;99.90;;;;;;4733442;30;20147;-80
2021/01/11 10:25:23;;;;;;;25.65;11.25;;;-4.50;99.90;;;;;;4733557;30;20143;-79
2021/01/11 10:27:52;;;;;;;25.92;12.73;;;-4.40;99.90;;;;;;4718783;30;20059;-79
2021/01/11 10:30:20;;;;;;;25.98;12.00;;;-4.30;99.90;;;;;;4733478;30;20045;-79
2021/01/11 10:32:51;;;;;;;29.88;11.65;;;-4.10;99.90;;;;;;4733502;30;20048;-79
2021/01/11 10:41:03;;;;;;;26.80;11.95;;;-4.10;99.90;;;;;;5516429;24;20102;-79
2021/01/11 10:52:52;;;;;;;29.25;11.80;;;-4.10;99.90;;;;;;4902385;24;20054;-79
2021/01/11 10:55:23;;;;;;;28.83;12.70;;;-4.10;99.90;;;;;;4768840;30;20062;-79
2021/01/11 10:57:55;;;;;;;26.85;12.43;;;-4.10;99.90;;;;;;4753923;30;20056;-79
2021/01/11 11:00:27;;;;;;;30.15;12.75;;;-4.10;99.90;;;;;;4740170;30;20052;-79
2021/01/11 11:02:58;;;;;;;27.85;12.50;;;-4.10;99.90;;;;;;4754925;30;20066;-79
2021/01/11 11:05:29;;;;;;;28.52;13.32;;;-4.00;99.90;;;;;;5374034;24;20113;-78
2021/01/11 11:08:00;;;;;;;26.02;12.93;;;-4.00;99.90;;;;;;4751017;30;20059;-79
2021/01/11 11:10:32;;;;;;;25.40;12.27;;;-4.00;99.90;;;;;;4736906;30;20420;-79
2021/01/11 11:13:06;;;;;;;22.90;11.38;;;-3.90;99.90;;;;;;4751143;30;20048;-79
2021/01/11 11:15:42;;;;;;;26.58;11.75;;;-3.80;99.90;;;;;;4719504;30;20049;-79
2021/01/11 11:18:14;;;;;;;24.15;11.23;;;-3.80;99.90;;;;;;4734014;30;20056;-78
2021/01/11 11:20:45;;;;;;;26.50;11.18;;;-3.90;99.90;;;;;;4719159;30;20058;-79
2021/01/11 11:55:10;;;;;;;20.50;10.23;;;-3.80;99.90;;;;;;5282884;24;20466;-79
2021/01/11 11:57:41;;;;;;;24.25;10.50;;;-3.60;99.90;;;;;;4773894;30;20067;-79
2021/01/11 12:00:17;;;;;;;23.60;10.80;;;-3.50;99.90;;;;;;4774849;30;20515;-79
2021/01/11 12:02:48;;;;;;;26.10;11.13;;;-3.50;99.90;;;;;;4774649;30;20062;-79
2021/01/11 12:05:20;;;;;;;23.02;11.20;;;-3.50;99.90;;;;;;4775181;30;20058;-78
2021/01/11 12:07:53;;;;;;;22.65;11.32;;;-3.30;99.90;;;;;;4775133;30;20059;-79
2021/01/11 12:10:24;;;;;;;27.75;11.05;;;-3.30;99.90;;;;;;4790305;30;20169;-79
2021/01/11 12:12:56;;;;;;;27.88;12.00;;;-3.10;99.90;;;;;;4775386;30;20058;-79
2021/01/11 12:15:23;;;;;;;26.48;11.77;;;-3.00;99.90;;;;;;4759288;30;20116;-79
2021/01/11 12:17:54;;;;;;;23.45;10.50;;;-3.00;99.90;;;;;;4774255;30;20054;-79
2021/01/11 12:20:26;;;;;;;28.73;11.15;;;-2.90;99.90;;;;;;4760291;30;20132;-80
2021/01/11 12:22:52;;;;;;;25.17;11.98;;;-2.90;99.90;;;;;;4774088;30;20055;-79
2021/01/11 12:25:19;;;;;;;28.73;11.10;;;-2.80;99.90;;;;;;4773930;30;20146;-79
2021/01/11 12:27:51;;;;;;;25.77;11.13;;;-2.80;99.90;;;;;;4774272;30;20061;-79
2021/01/11 12:30:17;;;;;;;30.27;11.93;;;-2.80;99.90;;;;;;4774263;30;20051;-78
2021/01/11 12:32:49;;;;;;;28.38;11.05;;;-2.80;99.90;;;;;;4789450;30;20518;-79
2021/01/11 12:35:20;;;;;;;24.67;11.27;;;-2.80;99.90;;;;;;4775111;30;20397;-77
2021/01/11 12:37:52;;;;;;;24.08;11.27;;;-2.80;99.90;;;;;;4773725;30;20109;-79
2021/01/11 12:40:24;;;;;;;26.20;11.63;;;-2.80;99.90;;;;;;4759871;30;20059;-78
2021/01/11 12:42:56;;;;;;;32.92;15.65;;;-2.90;99.90;;;;;;4774926;30;20051;-78
2021/01/11 12:45:23;;;;;;;27.55;13.70;;;-3.00;99.90;;;;;;4773617;30;20051;-78
2021/01/11 12:47:54;;;;;;;24.48;11.95;;;-3.20;99.90;;;;;;4773568;30;20511;-78
2021/01/11 12:50:26;;;;;;;27.40;11.68;;;-3.10;99.90;;;;;;4773440;30;20067;-78
2021/01/11 12:52:52;;;;;;;21.80;11.93;;;-3.20;99.90;;;;;;4773304;30;20100;-78
2021/01/11 12:55:24;;;;;;;23.77;10.50;;;-3.20;99.90;;;;;;4773533;30;20051;-78
2021/01/11 12:57:55;;;;;;;28.13;11.45;;;-3.20;99.90;;;;;;4773238;30;20051;-78
2021/01/11 13:00:27;;;;;;;26.83;11.60;;;-3.20;99.90;;;;;;4773528;30;20059;-78
2021/01/11 13:02:53;;;;;;;30.02;11.75;;;-3.20;99.90;;;;;;4756202;30;20052;-78
2021/01/11 13:05:20;;;;;;;25.35;11.88;;;-3.20;99.90;;;;;;4755468;30;20105;-79
2021/01/11 13:07:52;;;;;;;30.13;12.27;;;-3.10;99.90;;;;;;4741780;30;20051;-79
2021/01/11 13:10:23;;;;;;;27.33;11.57;;;-3.10;99.90;;;;;;4756269;30;20051;-78
2021/01/11 13:12:55;;;;;;;34.20;18.40;;;-3.20;99.90;;;;;;4741682;30;20268;-79
2021/01/11 13:48:52;;;;;;;30.33;13.85;;;-3.40;99.90;;;;;;5037943;24;20131;-78
2021/01/11 13:51:18;;;;;;;24.92;11.70;;;-3.30;99.90;;;;;;4775315;29;20078;-78
2021/01/11 13:53:50;;;;;;;27.05;12.35;;;-3.30;99.90;;;;;;4776173;29;20054;-78
2021/01/11 13:56:30;;;;;;;25.88;12.27;;;-3.30;99.90;;;;;;4789951;29;20063;-79
2021/01/11 13:59:04;;;;;;;22.42;11.10;;;-3.20;99.90;;;;;;4790335;29;20047;-79
2021/01/11 14:01:38;;;;;;;25.48;12.02;;;-3.20;99.90;;;;;;4790167;29;20054;-78
2021/01/11 14:04:04;;;;;;;27.38;12.05;;;-3.10;99.90;;;;;;4775200;29;20062;-78
2021/01/11 14:06:31;;;;;;;25.60;11.90;;;-3.10;99.90;;;;;;4790007;29;20055;-78
2021/01/11 14:09:03;;;;;;;26.40;11.77;;;-3.20;99.90;;;;;;4775788;29;20579;-78
2021/01/11 14:11:34;;;;;;;25.73;12.32;;;-3.20;99.90;;;;;;4775498;29;20503;-78
2021/01/11 14:14:06;;;;;;;26.67;12.05;;;-3.20;99.90;;;;;;4775589;29;20046;-78
2021/01/11 14:16:38;;;;;;;27.70;12.13;;;-3.20;99.90;;;;;;4775922;29;20066;-79
2021/01/11 14:19:09;;;;;;;24.42;12.50;;;-3.10;99.90;;;;;;4775776;29;20051;-78
2021/01/11 14:21:46;;;;;;;24.27;11.43;;;-3.20;99.90;;;;;;4775775;29;20054;-78
2021/01/11 14:24:12;;;;;;;23.80;11.30;;;-3.40;99.90;;;;;;4790101;29;20081;-78
2021/01/11 14:26:44;;;;;;;25.35;12.52;;;-3.40;99.90;;;;;;4775755;29;20057;-79
2021/01/11 14:29:11;;;;;;;26.83;12.15;;;-3.40;99.90;;;;;;4778818;29;20437;-78
2021/01/11 14:31:42;;;;;;;25.23;12.05;;;-3.30;99.90;;;;;;4772106;30;20047;-78
2021/01/11 14:34:14;;;;;;;34.30;15.50;;;-3.30;99.90;;;;;;4757810;30;20051;-78
2021/01/11 14:36:40;;;;;;;25.58;13.48;;;-3.30;99.90;;;;;;4757416;29;20124;-79
2021/01/11 14:39:12;;;;;;;36.22;13.65;;;-3.20;99.90;;;;;;4775509;29;20483;-78
2021/01/11 14:41:44;;;;;;;30.27;13.38;;;-3.20;99.90;;;;;;4754848;30;20427;-78
2021/01/11 14:46:59;;;;;;;27.43;10.40;;;-3.20;99.90;;;;;;4752310;30;20059;-79
2021/01/11 14:49:31;;;;;;;23.52;11.73;;;-3.30;99.90;;;;;;4739982;30;20058;-78
2021/01/11 14:52:04;;;;;;;28.15;12.55;;;-3.40;99.90;;;;;;4754017;30;20392;-78
2021/01/11 14:54:35;;;;;;;27.38;12.40;;;-3.40;99.90;;;;;;4754996;30;20066;-77
2021/01/11 14:57:07;;;;;;;26.38;12.52;;;-3.30;99.90;;;;;;4755308;30;20111;-79
2021/01/11 14:59:33;;;;;;;30.55;12.75;;;-3.40;99.90;;;;;;4740071;30;20048;-79
2021/01/11 15:02:00;;;;;;;44.92;17.73;;;-3.40;99.90;;;;;;4739921;30;20509;-79
2021/01/11 15:07:23;;;;;;;26.58;13.45;;;-3.50;99.90;;;;;;5674148;24;20839;-79
2021/01/11 15:09:55;;;;;;;25.77;12.98;;;-3.60;99.90;;;;;;4783809;29;20047;-79
2021/01/11 15:12:26;;;;;;;26.17;12.45;;;-3.50;99.90;;;;;;4775615;29;20047;-79
2021/01/11 15:14:58;;;;;;;26.55;13.43;;;-3.60;99.90;;;;;;4806787;24;20076;-80
2021/01/11 15:17:25;;;;;;;29.65;14.73;;;-3.60;99.90;;;;;;4754454;30;20536;-79
2021/01/11 15:19:58;;;;;;;29.35;14.13;;;-3.50;99.90;;;;;;4756758;30;20450;-79
2021/01/11 15:22:29;;;;;;;29.33;12.88;;;-3.40;99.90;;;;;;4757383;30;20084;-78
2021/01/11 15:34:10;;;;;;;25.00;12.55;;;-3.60;99.90;;;;;;5383001;24;20062;-79
2021/01/11 15:36:37;;;;;;;32.05;13.60;;;-3.80;99.90;;;;;;4762036;30;20062;-79
2021/01/11 15:39:08;;;;;;;31.73;13.05;;;-4.00;99.90;;;;;;4762091;30;20127;-78
2021/01/11 15:41:48;;;;;;;24.60;12.40;;;-4.00;99.90;;;;;;4760326;30;20059;-78
2021/01/11 15:47:15;;;;;;;24.63;12.35;;;-4.00;99.90;;;;;;5545405;24;20044;-80
2021/01/11 15:50:49;;;;;;;27.10;12.25;;;-3.90;99.90;;;;;;4788926;30;20078;-82
2021/01/11 15:53:20;;;;;;;26.00;11.63;;;-3.90;99.90;;;;;;4767651;30;20142;-75
2021/01/11 15:56:27;;;;;;;29.67;13.40;;;-3.80;99.90;;;;;;4794362;29;20107;-82
2021/01/11 15:58:55;;;;;;;26.45;11.95;;;-3.70;99.90;;;;;;4774531;30;20046;-79
2021/01/11 16:37:01;;;;;;;27.20;13.15;;;-4.00;99.90;;;;;;4753225;30;20113;-79
2021/01/11 16:39:28;;;;;;;32.97;15.35;;;-4.20;99.90;;;;;;4726459;30;20080;-79
2021/01/11 17:26:12;;;;;;;41.38;17.67;;;-4.70;99.90;;;;;;5045787;24;20043;-78
2021/01/11 17:52:27;;;;;;;47.15;20.50;;;-4.50;99.90;;;;;;5158769;24;20064;-80
2021/01/11 17:55:14;;;;;;;33.10;14.48;;;-4.60;99.90;;;;;;4728834;30;20067;-80
2021/01/11 17:57:53;;;;;;;33.08;15.70;;;-4.70;99.90;;;;;;4733458;30;20116;-80
2021/01/11 18:09:18;;;;;;;33.28;16.23;;;-4.70;99.90;;;;;;4746994;30;20041;-80
2021/01/11 18:12:19;;;;;;;39.35;17.13;;;-4.70;99.90;;;;;;4753436;30;20113;-80
2021/01/11 18:14:50;;;;;;;45.67;19.17;;;-4.70;99.90;;;;;;4748320;30;20060;-80
2021/01/11 18:17:44;;;;;;;44.75;18.95;;;-4.80;99.90;;;;;;4736865;30;20111;-80
2021/01/11 18:20:28;;;;;;;47.75;20.98;;;-4.80;99.90;;;;;;4747819;30;20113;-80
2021/01/11 18:23:55;;;;;;;42.97;19.08;;;-4.90;99.90;;;;;;4728460;30;20444;-80
2021/01/11 18:26:44;;;;;;;39.70;16.80;;;-4.90;99.90;;;;;;4736883;30;20106;-79
2021/01/11 22:11:51;;;;;;;32.75;15.45;;;-5.20;99.90;;;;;;4756331;30;20039;-77
2021/01/11 22:14:22;;;;;;;32.85;15.15;;;-5.20;99.90;;;;;;4766593;30;20048;-77
2021/01/11 22:16:57;;;;;;;35.83;17.00;;;-5.20;99.90;;;;;;4769857;30;20496;-77
2021/01/11 22:19:28;;;;;;;33.33;16.58;;;-5.30;99.90;;;;;;4754007;30;20051;-77
2021/01/11 22:21:59;;;;;;;32.58;15.80;;;-5.30;99.90;;;;;;4754644;30;20586;-77
2021/01/11 22:24:30;;;;;;;36.40;16.63;;;-5.30;99.90;;;;;;4754830;30;20525;-77
2021/01/11 22:27:01;;;;;;;39.17;18.02;;;-5.30;99.90;;;;;;4754633;30;20053;-77
2021/01/11 22:29:33;;;;;;;35.47;17.95;;;-5.30;99.90;;;;;;4754499;30;20073;-77
2021/01/11 22:32:04;;;;;;;37.60;17.00;;;-5.30;99.90;;;;;;4754390;30;20043;-77
2021/01/11 22:34:30;;;;;;;38.13;18.80;;;-5.20;99.90;;;;;;4768192;30;20055;-77
2021/01/11 22:37:02;;;;;;;36.63;17.20;;;-5.20;99.90;;;;;;4767897;30;20511;-77
2021/01/11 22:39:33;;;;;;;35.37;17.67;;;-5.10;99.90;;;;;;4768167;30;20043;-77
2021/01/11 22:41:59;;;;;;;38.28;16.52;;;-5.10;99.90;;;;;;4753765;30;20154;-77
2021/01/11 22:44:30;;;;;;;38.53;16.98;;;-5.10;99.90;;;;;;4768480;30;20575;-77
2021/01/11 22:47:02;;;;;;;40.60;19.00;;;-5.00;99.90;;;;;;4768450;30;20141;-77
2021/01/11 22:49:33;;;;;;;38.60;17.45;;;-5.00;99.90;;;;;;4754037;30;20051;-77
2021/01/11 22:52:06;;;;;;;41.38;19.38;;;-5.00;99.90;;;;;;4768405;30;20044;-77
2021/01/11 22:54:37;;;;;;;32.93;14.97;;;-5.00;99.90;;;;;;4754577;30;20082;-77
2021/01/11 22:57:11;;;;;;;37.80;17.40;;;-5.00;99.90;;;;;;4754280;30;20154;-77
2021/01/11 22:59:43;;;;;;;38.40;18.02;;;-5.00;99.90;;;;;;4753912;30;20134;-77
2021/01/11 23:02:16;;;;;;;40.78;18.98;;;-4.90;99.90;;;;;;4754342;30;20051;-77
2021/01/11 23:04:48;;;;;;;25.07;13.37;;;-4.90;99.90;;;;;;4754351;30;20061;-77
2021/01/11 23:07:19;;;;;;;41.35;19.83;;;-4.80;99.90;;;;;;4754100;30;20344;-77
2021/01/11 23:09:50;;;;;;;41.88;20.45;;;-4.80;99.90;;;;;;4767768;30;20147;-77
2021/01/11 23:12:21;;;;;;;34.20;17.27;;;-4.80;99.90;;;;;;4754279;30;20418;-77
2021/01/11 23:14:53;;;;;;;41.83;19.80;;;-4.80;99.90;;;;;;4768091;30;20134;-77
2021/01/11 23:17:24;;;;;;;38.88;20.30;;;-4.80;99.90;;;;;;4753916;30;20079;-77
2021/01/11 23:19:55;;;;;;;40.50;19.52;;;-4.80;99.90;;;;;;4768551;30;20051;-77
2021/01/11 23:22:26;;;;;;;42.17;20.10;;;-4.70;99.90;;;;;;4754033;30;20082;-76
2021/01/11 23:24:58;;;;;;;42.75;21.42;;;-4.70;99.90;;;;;;4754106;30;20051;-77
2021/01/11 23:27:29;;;;;;;39.92;18.67;;;-4.60;99.90;;;;;;4753783;30;20047;-77
2021/01/11 23:30:00;;;;;;;40.28;20.17;;;-4.60;99.90;;;;;;4753721;30;20056;-77
2021/01/11 23:32:33;;;;;;;43.05;20.17;;;-4.50;99.90;;;;;;4768153;30;20789;-77
2021/01/11 23:35:02;;;;;;;39.17;20.42;;;-4.50;99.90;;;;;;4753499;30;20511;-77
2021/01/11 23:37:38;;;;;;;37.17;20.05;;;-4.50;99.90;;;;;;4754102;30;20487;-78
2021/01/11 23:40:10;;;;;;;38.45;17.98;;;-4.40;99.90;;;;;;4754278;30;20086;-77
2021/01/11 23:42:41;;;;;;;42.33;21.52;;;-4.40;99.90;;;;;;4754054;30;20044;-77
2021/01/11 23:45:14;;;;;;;40.25;20.23;;;-4.40;99.90;;;;;;4768694;30;20077;-77
2021/01/11 23:47:45;;;;;;;40.30;20.50;;;-4.40;99.90;;;;;;4772183;30;20047;-79
2021/01/11 23:50:17;;;;;;;38.55;19.08;;;-4.40;99.90;;;;;;4771860;30;20051;-77
2021/01/11 23:52:49;;;;;;;39.60;20.65;;;-4.40;99.90;;;;;;4758083;30;20138;-77
2021/01/11 23:55:22;;;;;;;40.88;20.23;;;-4.40;99.90;;;;;;4757851;30;20048;-77
2021/01/11 23:57:54;;;;;;;35.92;19.67;;;-4.40;99.90;;;;;;4757107;30;20058;-77
